Time;durP1;ratioP1;P1;durP2;ratioP2;P2;SDS_P1;SDS_P2;PMS_P1;PMS_P2;Temp;Humidity;BMP_temperature;BMP_pressure;BME280_temperature;BME280_humidity;BME280_pressure;Samples;Min_cycle;Max_cycle;Signal;HPM_P1;HPM_P2
2023/01/04 00:01:56;;;;;;;43.30;22.35;;;6.30;99.90;;;;;;5054244;28;20362;-44
2023/01/04 00:04:21;;;;;;;57.40;23.52;;;6.00;99.90;;;;;;5035872;28;20139;-45
2023/01/04 00:06:47;;;;;;;44.22;23.65;;;6.20;99.90;;;;;;5054559;28;20393;-44
2023/01/04 00:09:13;;;;;;;43.35;25.77;;;6.40;99.90;;;;;;5054318;28;20053;-44
2023/01/04 00:11:39;;;;;;;40.30;21.25;;;6.70;99.90;;;;;;5035659;28;20037;-44
2023/01/04 00:14:04;;;;;;;67.20;22.35;;;6.60;99.90;;;;;;5035654;28;20078;-44
2023/01/04 00:16:30;;;;;;;47.58;22.85;;;6.60;99.90;;;;;;5035116;28;20036;-44
2023/01/04 00:18:56;;;;;;;38.80;22.75;;;6.70;99.90;;;;;;5035598;28;20052;-45
2023/01/04 00:21:25;;;;;;;37.63;20.25;;;6.80;99.90;;;;;;5054179;28;20049;-44
2023/01/04 00:23:53;;;;;;;37.28;24.15;;;6.60;99.90;;;;;;5068954;28;20029;-44
2023/01/04 00:26:22;;;;;;;25.38;19.80;;;6.80;99.90;;;;;;5053774;28;20040;-44
2023/01/04 00:28:52;;;;;;;39.03;20.77;;;6.80;99.90;;;;;;5052667;28;20032;-44
2023/01/04 00:31:17;;;;;;;36.03;20.77;;;6.50;99.90;;;;;;5054226;28;20029;-44
2023/01/04 00:33:43;;;;;;;29.83;19.00;;;6.60;99.90;;;;;;5053862;28;20534;-44
2023/01/04 00:36:13;;;;;;;49.83;20.88;;;6.50;99.90;;;;;;5051617;28;20054;-44
2023/01/04 00:38:40;;;;;;;40.83;19.77;;;6.40;99.90;;;;;;5053986;28;20070;-44
2023/01/04 00:41:08;;;;;;;29.92;21.92;;;6.00;99.90;;;;;;5053962;28;20025;-45
2023/01/04 00:43:34;;;;;;;27.67;21.10;;;6.00;99.90;;;;;;5053700;28;20044;-44
2023/01/04 00:46:00;;;;;;;27.65;21.70;;;6.20;99.90;;;;;;5053789;28;20029;-45
2023/01/04 00:48:28;;;;;;;27.58;20.50;;;6.30;99.90;;;;;;5053278;28;20040;-44
2023/01/04 00:50:54;;;;;;;55.67;21.58;;;6.40;99.90;;;;;;5051572;28;20119;-44
2023/01/04 00:53:20;;;;;;;45.28;22.55;;;5.90;99.90;;;;;;5053334;28;20064;-44
2023/01/04 00:55:45;;;;;;;27.45;20.95;;;6.00;99.90;;;;;;5053406;28;20025;-44
2023/01/04 00:58:11;;;;;;;25.42;20.67;;;6.10;99.90;;;;;;5035031;28;20041;-43
2023/01/04 01:00:37;;;;;;;26.75;20.65;;;6.10;99.90;;;;;;5053566;28;20039;-44
2023/01/04 01:03:03;;;;;;;29.23;19.40;;;6.20;99.90;;;;;;5053792;28;20029;-44
2023/01/04 01:05:31;;;;;;;38.30;20.52;;;6.20;99.90;;;;;;5053325;28;20029;-44
2023/01/04 01:07:57;;;;;;;64.40;22.50;;;6.30;99.90;;;;;;5053065;28;20037;-44
2023/01/04 01:10:23;;;;;;;80.97;21.98;;;5.90;99.90;;;;;;5034881;28;20083;-44
2023/01/04 01:12:48;;;;;;;52.63;20.80;;;5.70;99.90;;;;;;5053027;28;20029;-44
2023/01/04 01:15:14;;;;;;;36.70;23.02;;;5.80;99.90;;;;;;5053216;28;20460;-44
2023/01/04 01:17:40;;;;;;;34.78;21.42;;;5.90;99.90;;;;;;5053395;28;20033;-44
2023/01/04 01:20:07;;;;;;;26.65;20.55;;;5.90;99.90;;;;;;5051598;28;20037;-44
2023/01/04 01:22:35;;;;;;;25.95;20.00;;;6.10;99.90;;;;;;5034714;28;20041;-44
2023/01/04 01:25:00;;;;;;;30.92;20.90;;;6.40;99.90;;;;;;5051227;28;20051;-44
2023/01/04 01:27:27;;;;;;;29.27;20.48;;;6.50;99.90;;;;;;5052975;28;20082;-44
2023/01/04 01:29:53;;;;;;;27.45;21.05;;;6.60;99.90;;;;;;5052921;28;20037;-44
2023/01/04 01:32:18;;;;;;;29.20;21.50;;;6.70;99.90;;;;;;5053142;28;20100;-44
2023/01/04 01:34:44;;;;;;;27.08;20.88;;;6.60;99.90;;;;;;5052983;28;20033;-44
2023/01/04 01:37:10;;;;;;;29.88;21.67;;;6.40;99.90;;;;;;5053003;28;20493;-44
2023/01/04 01:39:36;;;;;;;27.85;20.50;;;6.00;99.90;;;;;;5053077;28;20029;-44
2023/01/04 01:42:01;;;;;;;28.40;19.20;;;5.90;99.90;;;;;;5053008;28;20068;-44
2023/01/04 01:44:45;;;;;;;28.00;19.13;;;5.70;99.90;;;;;;5052856;28;20029;-44
2023/01/04 01:47:23;;;;;;;26.25;19.80;;;5.60;99.90;;;;;;5052968;28;20055;-44
2023/01/04 01:49:52;;;;;;;28.88;21.20;;;5.50;99.90;;;;;;5052741;28;20423;-44
2023/01/04 01:52:23;;;;;;;29.10;21.88;;;5.30;99.90;;;;;;5050652;28;20139;-44
2023/01/04 01:54:57;;;;;;;33.58;22.13;;;5.30;99.90;;;;;;5052562;28;20112;-44
2023/01/04 01:57:27;;;;;;;31.55;23.63;;;5.10;99.90;;;;;;5053180;28;20464;-44
2023/01/04 01:59:57;;;;;;;34.35;25.15;;;5.30;99.90;;;;;;5051960;28;20036;-45
2023/01/04 02:02:23;;;;;;;37.60;24.45;;;5.40;99.90;;;;;;5052730;28;20029;-44
2023/01/04 02:04:50;;;;;;;36.35;24.33;;;5.30;99.90;;;;;;5052645;28;20021;-44
2023/01/04 02:07:20;;;;;;;32.22;23.40;;;5.30;99.90;;;;;;5051290;28;20469;-44
2023/01/04 02:09:48;;;;;;;32.70;24.30;;;5.00;99.90;;;;;;5052634;28;20465;-44
2023/01/04 02:12:13;;;;;;;29.98;22.80;;;5.30;99.90;;;;;;5052727;28;20052;-44
2023/01/04 02:14:42;;;;;;;32.35;24.63;;;5.20;99.90;;;;;;5053065;28;20461;-44
2023/01/04 02:17:27;;;;;;;33.22;23.98;;;5.40;99.90;;;;;;5052509;28;20060;-44
2023/01/04 02:20:16;;;;;;;41.88;25.05;;;5.70;99.90;;;;;;5054415;28;20025;-44
2023/01/04 02:23:18;;;;;;;42.35;24.15;;;6.10;99.90;;;;;;5042716;28;20385;-43
2023/01/04 02:26:08;;;;;;;32.95;22.40;;;6.50;99.90;;;;;;5056307;28;20032;-44
2023/01/04 02:28:42;;;;;;;29.80;22.02;;;6.60;99.90;;;;;;5056330;28;20127;-44
2023/01/04 02:31:19;;;;;;;27.85;21.25;;;6.80;99.90;;;;;;5056449;28;20032;-44
2023/01/04 02:34:21;;;;;;;26.65;20.80;;;7.00;99.90;;;;;;5056226;28;20040;-44
2023/01/04 02:37:07;;;;;;;27.58;21.35;;;7.10;99.90;;;;;;5056137;28;20021;-44
2023/01/04 02:39:42;;;;;;;25.48;20.75;;;6.90;99.90;;;;;;5056227;28;20102;-44
2023/01/04 02:44:51;;;;;;;24.63;19.95;;;7.10;99.90;;;;;;5056199;28;20487;-44
2023/01/04 02:45:17;;;;;;;24.83;20.10;;;7.20;99.90;;;;;;4994487;28;20253;-44
2023/01/04 02:50:32;;;;;;;26.60;21.73;;;7.40;99.90;;;;;;4994682;28;20053;-45
2023/01/04 02:53:00;;;;;;;30.20;24.15;;;7.40;99.90;;;;;;4994076;28;20494;-44
2023/01/04 02:55:48;;;;;;;31.75;24.85;;;7.40;99.90;;;;;;4994409;28;20042;-44
2023/01/04 02:58:51;;;;;;;29.75;24.20;;;7.60;99.90;;;;;;4993798;28;20049;-44
2023/01/04 03:07:45;;;;;;;32.00;23.35;;;7.10;99.90;;;;;;4994138;28;20126;-44
2023/01/04 03:10:14;;;;;;;30.98;24.48;;;7.00;99.90;;;;;;4993917;28;20034;-44
2023/01/04 03:12:46;;;;;;;31.45;24.95;;;6.70;99.90;;;;;;4994023;28;20113;-44
2023/01/04 03:15:32;;;;;;;33.53;25.65;;;6.70;99.90;;;;;;4993790;28;20589;-44
2023/01/04 03:18:30;;;;;;;31.55;23.85;;;6.50;99.90;;;;;;4993715;28;20401;-45
2023/01/04 03:20:59;;;;;;;29.73;23.92;;;6.40;99.90;;;;;;4997372;28;20157;-44
2023/01/04 03:35:54;;;;;;;35.70;26.95;;;7.40;99.90;;;;;;5055176;28;20036;-44
2023/01/04 03:50:32;;;;;;;29.98;24.52;;;8.10;99.90;;;;;;5054567;28;20037;-44
2023/01/04 03:52:58;;;;;;;32.95;25.45;;;8.00;99.90;;;;;;5054944;28;20063;-44
2023/01/04 03:55:28;;;;;;;32.35;26.48;;;8.10;99.90;;;;;;5054647;28;20029;-44
2023/01/04 03:57:54;;;;;;;32.42;26.58;;;8.20;99.90;;;;;;5019883;28;20033;-44
2023/01/04 04:00:20;;;;;;;32.38;24.92;;;8.20;99.90;;;;;;5054469;28;20031;-44
2023/01/04 04:02:47;;;;;;;35.30;25.25;;;8.30;99.90;;;;;;5036427;28;20037;-44
2023/01/04 04:10:50;;;;;;;34.88;26.67;;;8.30;99.90;;;;;;5054451;28;20036;-44
2023/01/04 04:13:16;;;;;;;34.75;27.77;;;8.40;99.90;;;;;;5052547;28;20389;-44
2023/01/04 04:15:41;;;;;;;36.60;28.65;;;8.40;99.90;;;;;;5048994;28;20088;-44
2023/01/04 04:18:07;;;;;;;34.85;26.67;;;8.40;99.90;;;;;;5045929;28;20028;-44
2023/01/04 04:20:33;;;;;;;34.78;26.00;;;8.50;99.90;;;;;;5054107;28;20021;-45
2023/01/04 04:22:59;;;;;;;30.83;24.60;;;8.60;99.90;;;;;;5035513;28;20039;-45
2023/01/04 04:25:25;;;;;;;35.58;27.20;;;8.70;99.90;;;;;;5053956;28;20103;-44
2023/01/04 04:27:50;;;;;;;35.58;26.95;;;8.70;99.90;;;;;;5054185;28;20464;-44
2023/01/04 04:30:16;;;;;;;38.00;26.88;;;8.80;99.90;;;;;;5035532;28;20036;-44
2023/01/04 04:32:42;;;;;;;34.63;28.67;;;8.80;99.90;;;;;;5002438;28;20037;-45
2023/01/04 04:35:08;;;;;;;36.42;28.23;;;8.90;99.90;;;;;;5054025;28;20078;-44
2023/01/04 04:37:34;;;;;;;37.65;28.85;;;8.90;99.90;;;;;;5054153;28;20112;-45
2023/01/04 04:40:00;;;;;;;36.05;28.15;;;8.80;99.90;;;;;;5068796;28;20470;-44
2023/01/04 04:42:26;;;;;;;34.00;28.27;;;8.70;99.90;;;;;;5068628;28;20401;-44
2023/01/04 04:44:52;;;;;;;35.40;28.25;;;8.50;99.90;;;;;;5054067;28;20036;-44
2023/01/04 04:47:18;;;;;;;35.08;27.55;;;8.50;99.90;;;;;;5035196;28;20045;-44
2023/01/04 04:49:43;;;;;;;36.92;28.27;;;8.40;99.90;;;;;;5053661;28;20037;-44
2023/01/04 04:52:09;;;;;;;36.05;27.98;;;8.50;99.90;;;;;;5068228;28;20123;-44
2023/01/04 04:54:35;;;;;;;34.95;27.95;;;8.50;99.90;;;;;;5018697;28;20033;-45
2023/01/04 04:57:01;;;;;;;39.30;28.90;;;8.50;99.90;;;;;;5053525;28;20024;-45
2023/01/04 04:59:26;;;;;;;36.22;27.63;;;8.60;99.90;;;;;;5053471;28;20029;-44
2023/01/04 05:01:52;;;;;;;36.60;29.33;;;8.60;99.90;;;;;;5033851;28;20033;-45
2023/01/04 05:04:18;;;;;;;37.30;29.65;;;8.60;99.90;;;;;;5051586;28;20037;-45
2023/01/04 05:06:48;;;;;;;39.10;28.45;;;8.60;99.90;;;;;;5050457;28;20044;-44
2023/01/04 05:09:15;;;;;;;40.13;31.20;;;8.60;99.90;;;;;;5053524;28;20476;-44
2023/01/04 05:14:26;;;;;;;37.92;29.15;;;8.50;99.90;;;;;;5033858;28;20120;-45
2023/01/04 05:16:52;;;;;;;42.20;30.85;;;8.60;99.90;;;;;;5047236;28;20119;-44
2023/01/04 05:19:18;;;;;;;37.20;28.73;;;8.70;99.90;;;;;;5053216;28;20072;-45
2023/01/04 05:21:44;;;;;;;40.03;30.20;;;8.80;99.90;;;;;;5052915;28;20112;-44
2023/01/04 05:24:11;;;;;;;42.70;29.55;;;8.90;99.90;;;;;;5053031;28;20025;-45
2023/01/04 05:26:37;;;;;;;47.88;33.33;;;9.00;99.90;;;;;;5053167;28;20175;-45
2023/01/04 05:29:03;;;;;;;33.42;27.63;;;9.00;99.90;;;;;;5053452;28;20048;-45
2023/01/04 05:31:28;;;;;;;42.38;27.98;;;9.10;99.90;;;;;;5032605;28;20114;-44
2023/01/04 05:33:54;;;;;;;34.17;26.70;;;9.20;99.90;;;;;;5052801;28;20040;-44
2023/01/04 05:36:20;;;;;;;30.73;24.80;;;9.30;99.90;;;;;;5018963;28;20042;-45
2023/01/04 05:38:46;;;;;;;32.75;27.73;;;9.30;99.90;;;;;;5033072;28;20120;-44
2023/01/04 05:43:56;;;;;;;34.10;25.92;;;9.40;99.90;;;;;;5036366;28;20043;-44
2023/01/04 05:46:22;;;;;;;33.65;26.95;;;9.30;99.90;;;;;;5051087;28;20400;-45
2023/01/04 05:48:47;;;;;;;32.80;26.58;;;9.40;99.90;;;;;;5050225;28;20037;-45
2023/01/04 05:51:13;;;;;;;30.75;25.15;;;9.40;99.90;;;;;;5052610;28;20108;-45
2023/01/04 05:53:39;;;;;;;32.00;26.17;;;9.50;99.90;;;;;;5053860;28;20078;-45
2023/01/04 05:56:05;;;;;;;34.78;26.15;;;9.40;99.90;;;;;;5053151;28;20504;-44
2023/01/04 05:58:31;;;;;;;33.22;27.25;;;9.50;99.90;;;;;;5023022;28;20079;-45
2023/01/04 06:00:56;;;;;;;34.95;26.02;;;9.50;99.90;;;;;;5052015;28;20428;-45
2023/01/04 06:03:22;;;;;;;34.20;27.83;;;9.50;99.90;;;;;;5039865;28;20127;-45
2023/01/04 06:05:49;;;;;;;34.05;27.08;;;9.50;99.90;;;;;;5055689;28;20036;-45
2023/01/04 06:08:15;;;;;;;38.05;28.55;;;9.50;99.90;;;;;;5071144;28;20377;-45
2023/01/04 06:10:41;;;;;;;39.92;29.38;;;9.50;99.90;;;;;;5055898;28;20040;-45
2023/01/04 06:13:07;;;;;;;35.97;26.77;;;9.60;99.90;;;;;;5053935;28;20059;-45
2023/01/04 06:15:32;;;;;;;33.08;25.98;;;9.40;99.90;;;;;;5055836;28;20076;-45
2023/01/04 06:17:58;;;;;;;37.25;27.88;;;9.40;99.90;;;;;;5054250;28;20056;-45
2023/01/04 06:20:24;;;;;;;38.65;26.83;;;9.20;99.90;;;;;;5037994;28;20041;-45
2023/01/04 06:22:50;;;;;;;35.00;25.85;;;9.20;99.90;;;;;;5037874;28;20029;-45
2023/01/04 06:25:16;;;;;;;34.90;26.73;;;9.10;99.90;;;;;;5037806;28;20117;-47
2023/01/04 06:27:42;;;;;;;39.13;26.63;;;9.20;99.90;;;;;;5070054;28;20048;-44
2023/01/04 06:30:08;;;;;;;38.15;26.70;;;9.00;99.90;;;;;;5055918;28;20498;-46
2023/01/04 06:32:34;;;;;;;33.85;26.05;;;9.10;99.90;;;;;;5021519;28;20075;-46
2023/01/04 06:35:00;;;;;;;36.10;27.80;;;9.10;99.90;;;;;;5035089;28;20072;-46
2023/01/04 06:37:26;;;;;;;34.97;27.60;;;9.10;99.90;;;;;;5034759;28;20124;-45
2023/01/04 06:39:51;;;;;;;33.15;26.50;;;8.80;99.90;;;;;;5055263;28;20040;-46
2023/01/04 06:45:02;;;;;;;37.35;28.10;;;8.90;99.90;;;;;;5040516;28;20048;-45
2023/01/04 06:47:28;;;;;;;41.35;28.80;;;9.10;99.90;;;;;;5056050;28;20037;-45
2023/01/04 06:49:53;;;;;;;36.85;25.90;;;9.20;99.90;;;;;;5056048;28;20032;-45
2023/01/04 06:52:19;;;;;;;38.55;28.38;;;9.30;99.90;;;;;;5053786;28;20084;-46
2023/01/04 06:54:45;;;;;;;33.70;27.50;;;9.20;99.90;;;;;;5053976;28;20045;-45
2023/01/04 06:57:12;;;;;;;38.40;30.75;;;9.20;99.90;;;;;;5070634;28;20071;-45
2023/01/04 06:59:37;;;;;;;39.97;31.52;;;9.30;99.90;;;;;;5055894;28;20052;-45
2023/01/04 07:02:04;;;;;;;53.40;42.15;;;9.20;99.90;;;;;;5055612;28;20468;-46
2023/01/04 07:04:29;;;;;;;41.53;34.67;;;9.40;99.90;;;;;;5070264;28;20048;-45
2023/01/04 07:06:56;;;;;;;42.88;33.50;;;9.40;99.90;;;;;;5037048;28;20040;-46
2023/01/04 07:09:22;;;;;;;47.53;38.50;;;9.50;99.90;;;;;;5037404;28;20045;-45
2023/01/04 07:11:48;;;;;;;48.28;39.58;;;9.40;99.90;;;;;;5055632;28;20021;-45
2023/01/04 07:14:13;;;;;;;47.70;37.00;;;9.50;99.90;;;;;;5053634;28;20120;-46
2023/01/04 07:16:39;;;;;;;40.25;33.30;;;9.50;99.90;;;;;;5055829;28;20532;-45
2023/01/04 07:19:07;;;;;;;36.65;29.45;;;9.50;99.90;;;;;;5055363;28;20048;-46
2023/01/04 07:21:33;;;;;;;40.72;30.75;;;9.60;99.90;;;;;;5055469;28;20029;-45
2023/01/04 07:23:59;;;;;;;47.83;33.78;;;9.40;99.90;;;;;;5055161;28;20366;-46
2023/01/04 07:26:24;;;;;;;48.92;37.80;;;9.40;99.90;;;;;;5055174;28;20040;-46
2023/01/04 07:31:35;;;;;;;50.13;42.63;;;9.50;99.90;;;;;;5039596;28;20044;-45
2023/01/04 07:34:00;;;;;;;45.28;36.58;;;9.70;99.90;;;;;;5053359;28;20033;-46
2023/01/04 07:36:26;;;;;;;54.60;40.30;;;9.70;99.90;;;;;;5036662;28;20037;-46
2023/01/04 07:38:52;;;;;;;67.15;47.72;;;9.80;99.90;;;;;;5036707;28;20044;-44
2023/01/04 07:41:18;;;;;;;56.10;42.53;;;;;;;;;;5036010;28;20045;-43
2023/01/04 07:43:45;;;;;;;44.28;35.30;;;9.90;99.90;;;;;;5055106;28;20025;-44
2023/01/04 07:46:10;;;;;;;36.85;29.13;;;9.80;99.90;;;;;;5069544;28;20435;-44
2023/01/04 07:48:36;;;;;;;41.35;33.97;;;9.80;99.90;;;;;;5054925;28;20082;-44
2023/01/04 07:51:02;;;;;;;48.78;39.28;;;9.90;99.90;;;;;;5053533;28;20041;-44
2023/01/04 07:53:28;;;;;;;55.42;44.08;;;10.00;99.90;;;;;;5053907;28;20041;-44
2023/01/04 07:55:56;;;;;;;56.20;45.38;;;10.00;99.90;;;;;;5035802;28;20029;-44
2023/01/04 07:58:21;;;;;;;47.40;39.88;;;10.00;99.90;;;;;;5054031;28;20058;-44
2023/01/04 08:00:47;;;;;;;45.58;36.85;;;10.20;99.90;;;;;;5034558;28;20045;-44
2023/01/04 08:03:13;;;;;;;43.72;35.10;;;10.20;99.90;;;;;;5052646;28;20025;-44
2023/01/04 08:05:38;;;;;;;37.80;29.55;;;10.20;99.90;;;;;;5034927;28;20125;-43
2023/01/04 08:08:04;;;;;;;35.67;28.70;;;10.10;99.90;;;;;;5069372;28;20056;-43
2023/01/04 08:10:30;;;;;;;35.92;28.00;;;10.10;99.90;;;;;;5054749;28;20036;-46
2023/01/04 08:12:59;;;;;;;33.88;27.73;;;10.20;99.90;;;;;;5054528;28;20079;-43
2023/01/04 08:15:26;;;;;;;45.88;34.85;;;10.10;99.90;;;;;;5054244;28;20029;-43
2023/01/04 08:17:51;;;;;;;39.72;28.70;;;10.10;99.90;;;;;;5053489;28;20025;-43
2023/01/04 08:20:18;;;;;;;43.88;32.60;;;10.00;99.90;;;;;;5054350;28;20075;-43
2023/01/04 08:22:44;;;;;;;40.60;30.83;;;10.00;99.90;;;;;;5053998;28;20068;-44
2023/01/04 08:25:10;;;;;;;33.63;27.52;;;10.00;99.90;;;;;;5052131;28;20067;-43
2023/01/04 08:27:36;;;;;;;34.80;25.92;;;10.00;99.90;;;;;;5067989;28;20508;-43
2023/01/04 08:30:02;;;;;;;35.00;25.02;;;10.10;99.90;;;;;;5053582;28;20021;-43
2023/01/04 08:32:28;;;;;;;31.20;25.42;;;10.20;99.90;;;;;;5002003;28;20064;-43
2023/01/04 08:34:54;;;;;;;29.25;24.42;;;10.20;99.90;;;;;;5035580;28;20068;-43
2023/01/04 08:37:20;;;;;;;31.83;25.63;;;10.20;99.90;;;;;;5052007;28;20041;-43
2023/01/04 08:39:45;;;;;;;32.03;24.45;;;10.20;99.90;;;;;;5054102;28;20024;-43
2023/01/04 08:42:11;;;;;;;32.33;24.90;;;10.20;99.90;;;;;;5053915;28;20115;-43
2023/01/04 08:44:37;;;;;;;37.72;26.73;;;10.30;99.90;;;;;;5051837;28;20033;-43
2023/01/04 08:47:03;;;;;;;34.30;26.35;;;;;;;;;;5053904;28;20362;-43
2023/01/04 08:49:29;;;;;;;34.78;25.52;;;10.40;99.90;;;;;;5054115;28;20035;-43
2023/01/04 08:51:55;;;;;;;34.65;26.80;;;10.40;99.90;;;;;;5053803;28;20049;-43
2023/01/04 08:54:21;;;;;;;33.28;24.33;;;10.50;99.90;;;;;;5053605;28;20465;-43
2023/01/04 08:56:47;;;;;;;40.78;26.00;;;10.60;99.90;;;;;;5053552;28;20039;-43
2023/01/04 08:59:14;;;;;;;36.22;26.02;;;10.60;99.90;;;;;;5053642;28;20029;-43
2023/01/04 09:01:40;;;;;;;33.65;24.17;;;10.70;99.90;;;;;;5053578;28;20360;-43
2023/01/04 09:04:06;;;;;;;31.25;24.50;;;10.70;99.90;;;;;;5034952;28;20029;-44
2023/01/04 09:06:32;;;;;;;32.17;24.88;;;10.80;99.90;;;;;;5053220;28;20045;-44
2023/01/04 09:08:58;;;;;;;33.17;23.92;;;10.90;99.90;;;;;;5052055;28;20036;-43
2023/01/04 09:11:25;;;;;;;28.90;23.55;;;11.00;99.90;;;;;;5042624;28;20037;-43
2023/01/04 09:13:56;;;;;;;28.90;22.15;;;;;;;;;;5050161;28;20037;-42
2023/01/04 09:16:21;;;;;;;29.63;22.02;;;11.30;99.90;;;;;;5048541;28;20127;-43
2023/01/04 09:18:47;;;;;;;26.48;22.02;;;11.40;99.90;;;;;;5053461;28;20112;-43
2023/01/04 09:21:18;;;;;;;30.83;22.23;;;11.40;99.90;;;;;;5050660;28;20552;-43
2023/01/04 09:23:44;;;;;;;28.42;22.15;;;11.40;99.90;;;;;;5052221;28;20056;-43
2023/01/04 09:26:14;;;;;;;26.35;20.92;;;;;;;;;;5069546;28;20032;-43
2023/01/04 09:28:40;;;;;;;29.48;22.45;;;11.70;99.90;;;;;;5072997;28;20063;-43
2023/01/04 09:31:07;;;;;;;29.75;24.10;;;11.70;99.90;;;;;;5073708;28;20040;-43
2023/01/04 09:33:33;;;;;;;30.60;22.77;;;11.70;99.90;;;;;;5073483;28;20090;-43
2023/01/04 09:36:03;;;;;;;28.15;21.98;;;11.80;99.90;;;;;;5073074;28;20028;-42
2023/01/04 09:38:30;;;;;;;24.75;18.85;;;11.80;99.90;;;;;;5037602;28;20033;-44
2023/01/04 09:41:04;;;;;;;28.92;22.48;;;11.80;99.90;;;;;;5073125;28;20032;-41
2023/01/04 09:43:39;;;;;;;28.17;20.15;;;11.90;99.90;;;;;;5073041;28;20030;-41
2023/01/04 09:46:09;;;;;;;34.38;22.60;;;12.10;99.90;;;;;;5073361;28;20103;-42
2023/01/04 09:48:40;;;;;;;25.13;18.48;;;12.30;99.90;;;;;;5072902;28;20043;-41
2023/01/04 09:51:15;;;;;;;23.27;18.42;;;12.50;99.90;;;;;;5072909;28;20042;-42
2023/01/04 09:53:49;;;;;;;26.98;18.27;;;12.60;99.90;;;;;;5073243;28;20051;-41
2023/01/04 09:56:36;;;;;;;24.33;18.73;;;12.50;99.90;;;;;;5072939;28;20033;-42
2023/01/04 09:59:08;;;;;;;27.15;20.15;;;12.60;99.90;;;;;;5088290;28;20506;-43
2023/01/04 10:01:45;;;;;;;26.33;20.27;;;;;;;;;;5070988;28;20047;-42
2023/01/04 10:04:43;;;;;;;21.88;18.60;;;13.30;99.90;;;;;;5071043;28;20114;-42
2023/01/04 10:07:27;;;;;;;25.88;19.08;;;13.70;99.90;;;;;;5070828;28;20052;-41
2023/01/04 10:09:54;;;;;;;23.77;18.00;;;14.30;99.90;;;;;;5054198;28;20036;-41
2023/01/04 10:12:31;;;;;;;23.58;18.13;;;14.60;99.90;;;;;;5072665;28;20032;-42
2023/01/04 10:15:24;;;;;;;19.98;16.08;;;14.80;99.90;;;;;;5070879;28;20399;-42
2023/01/04 10:18:08;;;;;;;20.67;17.77;;;14.60;99.90;;;;;;5072632;28;20028;-41
2023/01/04 10:20:39;;;;;;;21.75;15.95;;;;;;;;;;5072619;28;20028;-42
2023/01/04 10:23:27;;;;;;;22.33;16.55;;;15.60;99.90;;;;;;5072775;28;20097;-41
2023/01/04 10:25:56;;;;;;;19.23;15.32;;;16.20;99.90;;;;;;5072917;28;20024;-41
2023/01/04 10:28:40;;;;;;;19.17;15.35;;;17.10;99.90;;;;;;5072641;28;20033;-42
2023/01/04 10:31:15;;;;;;;19.60;15.07;;;17.50;99.90;;;;;;5053971;28;20064;-42
2023/01/04 10:33:54;;;;;;;20.65;14.55;;;17.70;99.90;;;;;;5072514;28;20106;-44
2023/01/04 10:36:23;;;;;;;23.05;14.82;;;17.80;99.90;;;;;;5072818;28;20035;-41
2023/01/04 10:39:16;;;;;;;15.25;12.30;;;18.40;99.90;;;;;;5072691;28;20064;-41
2023/01/04 10:41:49;;;;;;;16.10;14.40;;;18.40;99.90;;;;;;5072890;28;20064;-41
2023/01/04 10:44:18;;;;;;;16.05;14.38;;;;;;;;;;5076384;28;20033;-41
2023/01/04 10:46:58;;;;;;;16.92;15.32;;;20.30;99.90;;;;;;5074179;28;20056;-41
2023/01/04 10:49:48;;;;;;;18.33;16.35;;;21.10;99.90;;;;;;5076272;28;20074;-42
2023/01/04 10:52:41;;;;;;;15.35;12.57;;;21.50;99.90;;;;;;5073882;28;20496;-41
2023/01/04 10:55:11;;;;;;;12.80;11.25;;;;;;;;;;5075866;28;20609;-41
2023/01/04 10:57:43;;;;;;;53.92;31.25;;;;;;;;;;5075915;28;20375;-41
2023/01/04 11:00:17;;;;;;;14.55;11.38;;;;;;;;;;5076016;28;20434;-41
2023/01/04 11:02:44;;;;;;;13.07;11.52;;;;;;;;;;5075326;28;20065;-41
2023/01/04 11:05:19;;;;;;;13.63;12.10;;;;;;;;;;5073896;28;20032;-42
2023/01/04 11:07:54;;;;;;;16.27;12.65;;;23.60;94.60;;;;;;5060791;28;20465;-41
2023/01/04 11:10:39;;;;;;;11.63;10.15;;;22.20;94.20;;;;;;5055738;28;20025;-41
2023/01/04 11:13:05;;;;;;;18.35;12.20;;;23.00;94.00;;;;;;5055604;28;20480;-41
2023/01/04 11:15:31;;;;;;;11.48;10.25;;;22.50;93.00;;;;;;5003974;28;20044;-42
2023/01/04 11:18:01;;;;;;;22.73;11.63;;;22.30;96.10;;;;;;5056059;28;20045;-42
2023/01/04 11:20:28;;;;;;;27.30;17.02;;;22.60;95.10;;;;;;5055619;28;20032;-42
2023/01/04 11:22:54;;;;;;;17.42;12.43;;;21.60;96.90;;;;;;5037269;28;20033;-41
2023/01/04 11:25:22;;;;;;;14.27;10.90;;;21.30;99.90;;;;;;5055479;28;20025;-41
2023/01/04 11:27:55;;;;;;;13.57;11.40;;;22.10;99.90;;;;;;5055138;28;20041;-41
2023/01/04 11:30:47;;;;;;;11.60;9.43;;;;;;;;;;5055479;28;20487;-41
2023/01/04 11:33:16;;;;;;;17.80;12.10;;;;;;;;;;4993893;28;20050;-42
2023/01/04 11:35:49;;;;;;;10.85;8.50;;;;;;;;;;4993709;28;20157;-42
2023/01/04 11:38:36;;;;;;;9.52;8.50;;;;;;;;;;4993721;28;20042;-42
2023/01/04 11:41:06;;;;;;;8.32;7.53;;;;;;;;;;4993661;28;20394;-42
2023/01/04 11:43:39;;;;;;;11.27;8.20;;;;;;;;;;4993610;28;20034;-42
2023/01/04 11:46:14;;;;;;;9.07;8.07;;;;;;;;;;4993411;28;20041;-41
2023/01/04 11:48:42;;;;;;;11.00;9.40;;;23.00;92.40;;;;;;4993505;28;20029;-41
2023/01/04 11:51:32;;;;;;;11.70;10.25;;;;;;;;;;4993225;28;20460;-42
2023/01/04 11:54:13;;;;;;;21.52;15.25;;;;;;;;;;4993459;28;20046;-42
2023/01/04 11:56:40;;;;;;;11.60;8.63;;;;;;;;;;4993002;28;20042;-42
2023/01/04 11:59:16;;;;;;;10.30;9.00;;;23.30;98.70;;;;;;4993218;28;20514;-42
2023/01/04 12:01:48;;;;;;;9.73;8.82;;;22.70;97.30;;;;;;4993268;28;20038;-42
2023/01/04 12:04:22;;;;;;;11.65;9.48;;;23.00;95.70;;;;;;4993152;28;20093;-42
2023/01/04 12:06:51;;;;;;;11.55;9.68;;;;;;;;;;4992931;28;20065;-41
2023/01/04 12:09:18;;;;;;;17.77;11.10;;;;;;;;;;4988276;28;20037;-41
2023/01/04 12:11:52;;;;;;;11.40;8.73;;;;;;;;;;5012458;28;20037;-41
2023/01/04 12:14:24;;;;;;;14.55;11.38;;;21.60;99.90;;;;;;5012532;28;20132;-44
2023/01/04 12:17:02;;;;;;;14.68;10.35;;;21.90;96.80;;;;;;5012536;28;20030;-40
2023/01/04 12:19:29;;;;;;;20.55;16.05;;;;;;;;;;4980016;28;20038;-43
2023/01/04 12:21:59;;;;;;;17.42;11.43;;;;;;;;;;5012371;28;20417;-45
2023/01/04 12:24:28;;;;;;;17.48;12.25;;;20.60;91.20;;;;;;4979619;28;20599;-42
2023/01/04 12:26:55;;;;;;;22.55;13.55;;;20.30;91.50;;;;;;5009414;28;20108;-46
2023/01/04 12:29:23;;;;;;;12.05;10.10;;;20.20;92.00;;;;;;5012274;28;20034;-44
2023/01/04 12:32:05;;;;;;;12.93;11.23;;;;;;;;;;5012077;28;20072;-43
2023/01/04 12:34:33;;;;;;;15.70;9.40;;;;;;;;;;5012263;28;20069;-44
2023/01/04 12:37:00;;;;;;;10.48;9.43;;;20.20;99.40;;;;;;5011893;28;20091;-45
2023/01/04 12:39:37;;;;;;;20.70;16.38;;;20.00;92.00;;;;;;5012257;28;20477;-44
2023/01/04 12:42:06;;;;;;;13.52;9.52;;;20.00;92.00;;;;;;5021652;28;20542;-44
2023/01/04 12:44:38;;;;;;;11.85;9.63;;;20.10;91.90;;;;;;5068582;28;20035;-44
2023/01/04 12:50:06;;;;;;;10.75;8.68;;;19.30;92.30;;;;;;5053524;28;20043;-44
2023/01/04 12:52:31;;;;;;;11.77;9.35;;;18.70;96.60;;;;;;5053661;28;20399;-44
2023/01/04 12:55:02;;;;;;;13.10;8.63;;;19.30;93.30;;;;;;5053489;28;20088;-44
2023/01/04 12:57:38;;;;;;;11.05;9.20;;;19.20;91.90;;;;;;5053939;28;20460;-43
2023/01/04 13:00:13;;;;;;;9.85;8.65;;;19.20;92.30;;;;;;5052047;28;20484;-44
2023/01/04 13:03:05;;;;;;;12.65;9.10;;;19.30;91.70;;;;;;5019020;28;20041;-44
2023/01/04 13:05:35;;;;;;;9.68;8.65;;;19.70;95.70;;;;;;4972418;28;20030;-45
2023/01/04 13:08:02;;;;;;;12.13;10.02;;;19.50;93.20;;;;;;4972532;28;20054;-45
2023/01/04 13:10:33;;;;;;;15.35;9.45;;;19.70;93.20;;;;;;4972393;28;20039;-45
2023/01/04 13:13:07;;;;;;;15.10;10.48;;;19.80;93.30;;;;;;4956324;28;20038;-44
2023/01/04 13:16:03;;;;;;;12.63;9.25;;;19.50;93.10;;;;;;4972502;28;20050;-44
2023/01/04 13:18:49;;;;;;;13.23;9.07;;;19.30;99.40;;;;;;4972342;28;20037;-44
2023/01/04 13:21:33;;;;;;;14.13;8.75;;;19.20;92.40;;;;;;4971367;28;20133;-45
2023/01/04 13:24:02;;;;;;;17.45;9.10;;;19.40;92.20;;;;;;4965927;28;20034;-44
2023/01/04 13:26:41;;;;;;;10.23;8.30;;;19.50;91.90;;;;;;4969133;28;20039;-44
2023/01/04 13:29:16;;;;;;;9.30;7.95;;;19.50;91.50;;;;;;4971518;28;20101;-43
2023/01/04 13:31:51;;;;;;;10.50;7.72;;;19.60;93.10;;;;;;4955221;28;20039;-44
2023/01/04 13:34:20;;;;;;;12.40;9.35;;;19.60;93.10;;;;;;4971325;28;20034;-44
2023/01/04 13:37:02;;;;;;;8.68;7.25;;;19.80;95.30;;;;;;4955984;28;20035;-44
2023/01/04 13:39:28;;;;;;;15.25;8.63;;;19.90;94.00;;;;;;4972389;28;20121;-44
2023/01/04 13:41:56;;;;;;;7.93;6.80;;;19.80;99.90;;;;;;4972070;28;20033;-45
2023/01/04 13:44:52;;;;;;;13.00;9.52;;;19.70;99.90;;;;;;5051120;28;20443;-44
2023/01/04 13:47:18;;;;;;;9.70;6.90;;;19.20;94.40;;;;;;5052236;28;20384;-43
2023/01/04 13:49:44;;;;;;;11.93;7.20;;;19.50;94.20;;;;;;5033064;28;20033;-44
2023/01/04 13:52:27;;;;;;;12.25;7.30;;;19.30;94.10;;;;;;5033978;28;20124;-44